Seber — WDJ6453 — position and weather

sailwx.info

Track history (hours):
 
Tides and Currents Weather Stations Pressure Air Temp Water Temp Dewpoint Dewpoint Depression Visibility Wind Speed Wind Dir Waves Ship Positions

Seber

Owner: Weigt, Jeffrey T, Land O'Lakes, FL. More information available from US FCC via Universal Licensing System and Coast Guard Vessel Documentation Center.

Last reported at 2017-Oct-01 15:14 UTC. Time now 2017-Nov-18 08:34 UTC.
Position N 26°22' W 080°02'.
Warning: this ship's position is 47 days out of date.

Length 30 m.

Type: Pleasure craft. MMSI: 367797910.

Date/timePositionNaut miles runAvg speedWind from/ knotsBaromVisibWave heightAir tempDewpointWater temp
2017-Oct-01 15:14N 26°22' W 080°02'311.1
2017-Oct-01 14:57N 26°19' W 080°02'510.9
2017-Oct-01 14:27N 26°13' W 080°03'510.3
2017-Oct-01 13:57N 26°08' W 080°03'5 9.7
2017-Oct-01 13:26N 26°03' W 080°03'5 9.8
2017-Oct-01 12:56N 25°58' W 080°03'510.1
2017-Oct-01 12:27N 25°53' W 080°04'510.8
2017-Oct-01 11:59N 25°48' W 080°04'510.7
2017-Oct-01 11:30N 25°43' W 080°04'611.8
2017-Oct-01 11:00N 25°37' W 080°04'189 4.9
2017-Sep-29 20:20N 27°52' W 082°33'  
Track history (hours):
 
Tides and Currents Weather Stations Pressure Air Temp Water Temp Dewpoint Dewpoint Depression Visibility Wind Speed Wind Dir Waves Ship Positions

Seber

Owner: Weigt, Jeffrey T, Land O'Lakes, FL. More information available from US FCC via Universal Licensing System and Coast Guard Vessel Documentation Center.

Last reported at 2017-Oct-01 15:14 UTC. Time now 2017-Nov-18 08:34 UTC.
Position N 26°22' W 080°02'.
Warning: this ship's position is 47 days out of date.

Length 30 m.

Type: Pleasure craft. MMSI: 367797910.

Date/timePositionNaut miles runAvg speedWind from/ knotsBaromVisibWave heightAir tempDewpointWater temp
2017-Oct-01 15:14N 26°22' W 080°02'311.1
2017-Oct-01 14:57N 26°19' W 080°02'510.9
2017-Oct-01 14:27N 26°13' W 080°03'510.3
2017-Oct-01 13:57N 26°08' W 080°03'5 9.7
2017-Oct-01 13:26N 26°03' W 080°03'5 9.8
2017-Oct-01 12:56N 25°58' W 080°03'510.1
2017-Oct-01 12:27N 25°53' W 080°04'510.8
2017-Oct-01 11:59N 25°48' W 080°04'510.7
2017-Oct-01 11:30N 25°43' W 080°04'611.8
2017-Oct-01 11:00N 25°37' W 080°04'189 4.9
2017-Sep-29 20:20N 27°52' W 082°33'  

Dump ship's entire track history